tititudorancea.com
Station Historical Data
Daily Summary for April 26, 2018 Units:  Metric    English   Both
« Previous Day
Next Day »
Daily Weekly Monthly Yearly Custom
  High: Low: Average:
Temperature: -17.8 °C 6.6 °C 11.3 °C
Dew Point: -17.8 °C 5.3 °C 7.7 °C
Humidity: Humidity % 52 % 80 %
Wind Speed: 0 km/h 0 km/h 5.6 km/h
Wind Gust: 0 km/h - -
Wind:- - SSW
Pressure: 0 hPa 1016.1 hPa -
Precipitation: 0.25 mm    
Historical Graphs
 
 
Ararat weather Find more about Weather in Ararat, AU


 



 


Tabular Data for April 26, 2018
Time Temperature Dew Point Pressure Wind Wind Speed Wind Gust Humidity Rainfall Rate (Hourly)
-17.8 °C -17.8 °C 0 hPa Calm     Humidity % 0 mm
00:03 9 °C 6.9 °C 1016.1 hPa Calm     87 % 0 mm
00:08 8.9 °C 6.8 °C 1016.1 hPa Calm     87 % 0 mm
00:13 8.8 °C 6.7 °C 1016.1 hPa WNW 2.1 km/h 2.1 km/h 87 % 0 mm
00:18 8.7 °C 6.6 °C 1016.1 hPa WNW 0.2 km/h 1.6 km/h 87 % 0 mm
00:23 8.7 °C 6.8 °C 1016.1 hPa Calm     88 % 0 mm
00:28 8.7 °C 6.8 °C 1016.1 hPa Calm     88 % 0 mm
00:33 8.7 °C 7 °C 1016.1 hPa Calm     89 % 0 mm
00:38 8.7 °C 6.8 °C 1016.1 hPa Calm     88 % 0 mm
00:43 8.6 °C 6.7 °C 1016.1 hPa Calm     88 % 0 mm
00:48 8.4 °C 6.6 °C 1016.1 hPa WNW 1.8 km/h 3.2 km/h 88 % 0 mm
00:53 8.4 °C 6.6 °C 1016.1 hPa Calm     88 % 0 mm
00:58 8.3 °C 6.4 °C 1016.1 hPa Calm     88 % 0 mm
01:03 8.1 °C 6.2 °C 1016.1 hPa Calm     88 % 0 mm
01:08 8 °C 6.1 °C 1016.1 hPa Calm     88 % 0 mm
01:14 7.9 °C 6.2 °C 1016.1 hPa WNW 0.2 km/h 1.6 km/h 89 % 0 mm
01:19 7.9 °C 6.2 °C 1016.1 hPa Calm   1.9 km/h 89 % 0 mm
01:24 8 °C 6.3 °C 1016.1 hPa WNW 2.9 km/h 3.7 km/h 89 % 0 mm
01:29 8 °C 6.4 °C 1016.1 hPa WNW 2.3 km/h 5.6 km/h 90 % 0 mm
01:34 8 °C 6.3 °C 1016.1 hPa Calm     89 % 0 mm
01:39 8 °C 6.4 °C 1016.1 hPa Calm     90 % 0 mm
01:44 7.9 °C 6.4 °C 1016.1 hPa Calm     90 % 0 mm
01:49 7.9 °C 6.4 °C 1016.1 hPa Calm   1.9 km/h 90 % 0 mm
01:54 7.9 °C 6.3 °C 1016.1 hPa Calm     90 % 0 mm
01:59 7.8 °C 6.2 °C 1016.1 hPa WNW 0.2 km/h 5.6 km/h 90 % 0 mm
02:03 7.8 °C 6.4 °C 1016.1 hPa Calm   3.7 km/h 91 % 0 mm
02:09 7.7 °C 6.2 °C 1016.1 hPa Calm     90 % 0 mm
02:14 7.7 °C 6.3 °C 1016.1 hPa Calm     91 % 0 mm
02:19 7.5 °C 5.9 °C 1016.1 hPa Calm   1.9 km/h 90 % 0 mm
02:24 7.4 °C 5.9 °C 1016.1 hPa Calm     90 % 0 mm
02:29 7.4 °C 5.8 °C 1016.5 hPa Calm     90 % 0 mm
02:34 7.2 °C 5.6 °C 1016.1 hPa Calm     90 % 0 mm
02:39 7.1 °C 5.7 °C 1016.1 hPa WNW 0.5 km/h 3.7 km/h 91 % 0 mm
02:44 7.1 °C 5.7 °C 1016.5 hPa Calm     91 % 0 mm
02:49 6.9 °C 5.6 °C 1016.5 hPa Calm   3.7 km/h 91 % 0 mm
02:54 6.8 °C 5.4 °C 1016.5 hPa Calm   1.9 km/h 91 % 0 mm
02:59 6.8 °C 5.6 °C 1016.5 hPa Calm     92 % 0 mm
03:04 6.9 °C 5.7 °C 1016.1 hPa WNW 2.6 km/h 3.7 km/h 92 % 0 mm
03:09 7.3 °C 6.2 °C 1016.5 hPa WNW 2.7 km/h 3.7 km/h 93 % 0 mm
03:14 7.6 °C 6.5 °C 1016.1 hPa WNW 0.2 km/h 1.9 km/h 93 % 0 mm
03:19 7.8 °C 6.6 °C 1016.1 hPa WNW 0.2 km/h 3.7 km/h 92 % 0 mm
03:24 7.8 °C 6.6 °C 1016.1 hPa WNW 2.9 km/h 5.6 km/h 92 % 0 mm
03:29 7.7 °C 6.3 °C 1016.1 hPa Calm     91 % 0 mm
03:34 7.6 °C 6.3 °C 1016.5 hPa WNW 1.1 km/h 1.9 km/h 92 % 0 mm
03:39 7.6 °C 6.4 °C 1016.5 hPa Calm     92 % 0 mm
03:44 7.6 °C 6.4 °C 1016.5 hPa Calm     92 % 0 mm
03:49 7.6 °C 6.4 °C 1016.5 hPa Calm     92 % 0 mm
03:54 7.6 °C 6.4 °C 1016.5 hPa Calm   1.9 km/h 92 % 0 mm
03:59 7.6 °C 6.3 °C 1016.5 hPa Calm     92 % 0 mm
04:04 7.4 °C 6 °C 1016.5 hPa Calm     91 % 0 mm
04:09 7.2 °C 5.8 °C 1016.5 hPa Calm     91 % 0 mm
04:14 7.2 °C 5.8 °C 1016.5 hPa Calm     91 % 0 mm
04:19 7 °C 5.6 °C 1016.5 hPa Calm     91 % 0 mm
04:24 7 °C 5.6 °C 1016.5 hPa Calm     91 % 0 mm
04:29 6.7 °C 5.3 °C 1016.5 hPa Calm   3.7 km/h 91 % 0 mm
04:34 6.7 °C 5.4 °C 1016.5 hPa Calm     92 % 0 mm
04:39 6.7 °C 5.5 °C 1016.8 hPa Calm     92 % 0 mm
04:44 6.7 °C 5.5 °C 1016.8 hPa Calm     92 % 0 mm
04:49 6.8 °C 5.6 °C 1016.8 hPa Calm     92 % 0 mm
04:54 6.7 °C 5.5 °C 1016.8 hPa Calm     92 % 0 mm
04:59 6.6 °C 5.4 °C 1017.2 hPa Calm     92 % 0 mm
05:04 6.6 °C 5.4 °C 1017.2 hPa Calm     92 % 0 mm
05:09 6.7 °C 5.7 °C 1017.2 hPa Calm   1.6 km/h 93 % 0 mm
05:14 6.9 °C 5.9 °C 1017.2 hPa Calm     93 % 0 mm
05:19 6.9 °C 5.7 °C 1017.2 hPa Calm     92 % 0 mm
05:24 6.9 °C 5.8 °C 1017.5 hPa WNW 3.7 km/h 5.6 km/h 93 % 0 mm
05:29 6.9 °C 5.9 °C 1017.2 hPa Calm     93 % 0 mm
05:34 7 °C 5.9 °C 1017.5 hPa Calm     93 % 0 mm
05:39 7 °C 5.9 °C 1017.5 hPa Calm     93 % 0 mm
05:44 6.9 °C 5.9 °C 1017.5 hPa Calm     93 % 0 mm
05:49 7.1 °C 6.2 °C 1017.5 hPa Calm     94 % 0 mm
05:54 7.2 °C 6.2 °C 1017.5 hPa Calm     93 % 0 mm
05:59 7.4 °C 6.5 °C 1017.5 hPa Calm     94 % 0 mm
06:04 7.6 °C 6.7 °C 1017.8 hPa Calm     94 % 0 mm
06:09 7.8 °C 6.9 °C 1017.8 hPa Calm   3.7 km/h 94 % 0 mm
06:14 8.2 °C 7.4 °C 1018.2 hPa North 0.8 km/h 3.7 km/h 95 % 0 mm
06:19 8.4 °C 7.6 °C 1018.2 hPa North 1.9 km/h 5.6 km/h 94 % 0 mm
06:24 8.5 °C 7.6 °C 1018.2 hPa Calm     94 % 0 mm
06:29 8.6 °C 7.7 °C 1018.2 hPa WNW 1.8 km/h 3.7 km/h 94 % 0 mm
06:34 8.7 °C 7.8 °C 1018.2 hPa Calm     94 % 0 mm
06:39 8.9 °C 8 °C 1018.2 hPa WNW 1 km/h 3.7 km/h 94 % 0 mm
06:44 8.9 °C 8 °C 1018.2 hPa Calm   1.9 km/h 94 % 0 mm
06:49 8.7 °C 7.7 °C 1018.2 hPa Calm   1.9 km/h 93 % 0 mm
06:54 8.6 °C 7.6 °C 1018.2 hPa Calm     93 % 0 mm
06:59 8.4 °C 7.4 °C 1018.2 hPa Calm     93 % 0 mm
07:04 8.3 °C 7.2 °C 1018.5 hPa Calm     93 % 0 mm
07:09 8.3 °C 7.4 °C 1018.5 hPa Calm     94 % 0 mm
07:14 8.3 °C 7.4 °C 1018.5 hPa Calm     94 % 0.25 mm
07:19 8.4 °C 7.6 °C 1018.5 hPa Calm     94 % 0.25 mm
07:24 8.6 °C 7.7 °C 1018.5 hPa Calm     94 % 0.25 mm
07:29 8.6 °C 7.7 °C 1018.5 hPa Calm     94 % 0.25 mm
07:34 8.7 °C 7.8 °C 1018.5 hPa Calm     94 % 0.25 mm
07:39 8.8 °C 7.9 °C 1018.5 hPa Calm     94 % 0.25 mm
07:44 8.9 °C 8.1 °C 1018.8 hPa Calm     95 % 0.25 mm
07:49 9.1 °C 8.3 °C 1018.8 hPa Calm     95 % 0.25 mm
07:54 9.2 °C 8.4 °C 1018.8 hPa Calm     95 % 0.25 mm
07:59 9.4 °C 8.7 °C 1018.8 hPa Calm     95 % 0.25 mm
08:04 9.5 °C 8.6 °C 1019.2 hPa Calm     94 % 0.25 mm
08:09 9.7 °C 8.9 °C 1019.2 hPa Calm     95 % 0.25 mm
08:14 10.1 °C 9.3 °C 1019.2 hPa Calm     95 % 0 mm
08:19 10.4 °C 9.8 °C 1019.2 hPa Calm     96 % 0 mm
08:24 10.8 °C 10.2 °C 1019.2 hPa Calm     96 % 0 mm
08:29 11.1 °C 10.3 °C 1019.2 hPa WNW 2.6 km/h 5.6 km/h 95 % 0 mm
08:34 11.3 °C 10.5 °C 1019.2 hPa WNW 5 km/h 5.6 km/h 95 % 0 mm
08:39 11.5 °C 10.7 °C 1019.5 hPa WNW 0.6 km/h 1.9 km/h 95 % 0 mm
08:44 11.8 °C 11 °C 1019.5 hPa Calm     95 % 0 mm
08:49 11.8 °C 10.9 °C 1019.5 hPa Calm     94 % 0 mm
08:54 12.1 °C 11.1 °C 1019.5 hPa Calm     94 % 0 mm
08:59 12.2 °C 11.3 °C 1019.5 hPa Calm     94 % 0 mm
09:04 12.3 °C 11.2 °C 1019.5 hPa WNW 6.6 km/h 11.3 km/h 93 % 0 mm
09:09 12.6 °C 11.3 °C 1019.5 hPa SW 7.7 km/h 13 km/h 92 % 0 mm
09:14 12.9 °C 11.3 °C 1019.5 hPa SW 6.8 km/h 13 km/h 90 % 0 mm
09:19 13.1 °C 11.3 °C 1019.5 hPa SW 4 km/h 5.6 km/h 89 % 0 mm
09:24 13.4 °C 11.3 °C 1019.5 hPa SW 7.9 km/h 9.7 km/h 87 % 0 mm
09:29 13.6 °C 11.1 °C 1019.5 hPa WSW 5.8 km/h 9.3 km/h 85 % 0 mm
09:34 13.8 °C 11 °C 1019.5 hPa SSW 11.9 km/h 16.7 km/h 83 % 0 mm
09:39 13.9 °C 10.7 °C 1019.5 hPa SW 9.7 km/h 14.8 km/h 81 % 0 mm
09:44 14.2 °C 11 °C 1019.5 hPa SW 11.9 km/h 18.5 km/h 81 % 0 mm
09:49 14.4 °C 11.1 °C 1019.9 hPa SSW 19.6 km/h 25.9 km/h 80 % 0 mm
09:54 14.2 °C 10.6 °C 1019.9 hPa SSW 16.3 km/h 25.9 km/h 79 % 0 mm
09:59 14.2 °C 10.6 °C 1019.9 hPa SSW 14.6 km/h 18.5 km/h 79 % 0 mm
10:04 14.1 °C 10.5 °C 1019.9 hPa SW 6.6 km/h 11.1 km/h 79 % 0 mm
10:09 14.3 °C 10.7 °C 1019.9 hPa SW 10 km/h 18.5 km/h 79 % 0 mm
10:14 14.4 °C 10.6 °C 1019.9 hPa SW 13.2 km/h 18.5 km/h 78 % 0 mm
10:19 14.3 °C 10.3 °C 1019.9 hPa SW 16.1 km/h 20.4 km/h 77 % 0 mm
10:24 14.3 °C 10.5 °C 1019.9 hPa SSW 14.5 km/h 22.2 km/h 78 % 0 mm
10:29 14.1 °C 10.3 °C 1020.2 hPa SW 13 km/h 18.5 km/h 78 % 0 mm
10:34 14.2 °C 10.6 °C 1019.9 hPa SSW 13.2 km/h 22.5 km/h 79 % 0 mm
10:39 14.2 °C 10.6 °C 1019.9 hPa SSW 9 km/h 18.5 km/h 79 % 0 mm
10:44 14.3 °C 10.3 °C 1020.2 hPa SW 16.3 km/h 20.4 km/h 77 % 0 mm
10:49 14.2 °C 10.2 °C 1020.2 hPa SW 9.7 km/h 18.5 km/h 77 % 0 mm
10:54 14.3 °C 10.3 °C 1020.2 hPa SW 8.5 km/h 12.9 km/h 77 % 0 mm
10:59 14.4 °C 10.1 °C 1020.2 hPa South 15.9 km/h 24.1 km/h 75 % 0 mm
11:04 14.4 °C 9.4 °C 1020.2 hPa SW 20 km/h 24.1 km/h 72 % 0 mm
11:09 14.3 °C 9.6 °C 1020.2 hPa SW 15.3 km/h 18.5 km/h 73 % 0 mm
11:14 14.5 °C 9.7 °C 1020.2 hPa SW 14.8 km/h 22.2 km/h 73 % 0 mm
11:19 14.6 °C 10 °C 1020.2 hPa SW 10.8 km/h 20.4 km/h 74 % 0 mm
11:24 14.6 °C 9.8 °C 1020.2 hPa SW 11.1 km/h 14.8 km/h 73 % 0 mm
11:29 14.7 °C 9.7 °C 1020.5 hPa SSW 16.3 km/h 22.2 km/h 72 % 0 mm
11:34 14.7 °C 9.9 °C 1020.5 hPa SW 11.7 km/h 16.7 km/h 73 % 0 mm
11:39 14.7 °C 10.1 °C 1020.5 hPa SSW 10.8 km/h 16.7 km/h 74 % 0 mm
11:44 15 °C 10.4 °C 1020.2 hPa SW 16.3 km/h 20.4 km/h 74 % 0 mm
11:49 15.3 °C 10.3 °C 1020.2 hPa SW 8 km/h 16.7 km/h 72 % 0 mm
11:54 15.2 °C 10.4 °C 1020.2 hPa SW 6.1 km/h 11.1 km/h 73 % 0 mm
11:59 15.2 °C 10.3 °C 1020.2 hPa WSW 12.1 km/h 18.5 km/h 73 % 0 mm
12:04 15.1 °C 10.1 °C 1020.2 hPa WSW 13.2 km/h 18.5 km/h 72 % 0 mm
12:09 15.5 °C 10.4 °C 1020.2 hPa SSW 13 km/h 16.7 km/h 72 % 0 mm
12:14 15.8 °C 10.1 °C 1020.2 hPa SW 13.4 km/h 18.5 km/h 69 % 0 mm
12:19 15.6 °C 9.4 °C 1020.2 hPa SW 12.4 km/h 22.2 km/h 67 % 0 mm
12:24 15.5 °C 9.4 °C 1019.9 hPa SW 16.3 km/h 18.5 km/h 67 % 0 mm
12:29 15.7 °C 9.1 °C 1019.9 hPa SSW 13.7 km/h 27.4 km/h 65 % 0 mm
12:34 15.7 °C 9.4 °C 1019.5 hPa SSW 14.8 km/h 24.1 km/h 66 % 0 mm
12:47 16.1 °C 9 °C 1019.5 hPa SSW 20.4 km/h 20.4 km/h 63 % 0 mm
12:50 16.1 °C 8.6 °C 1019.5 hPa SW 15.8 km/h 20.4 km/h 61 % 0 mm
12:55 15.9 °C 8.7 °C 1019.5 hPa SW 9.8 km/h 14.8 km/h 62 % 0 mm
13:05 16.1 °C 8.8 °C 1019.5 hPa SSW 15.8 km/h 20.4 km/h 62 % 0 mm
13:10 15.8 °C 8.6 °C 1019.5 hPa SSW 16.1 km/h 22.2 km/h 62 % 0 mm
13:15 15.8 °C 8.5 °C 1019.2 hPa SSW 11.6 km/h 20.4 km/h 62 % 0 mm
13:20 15.8 °C 8.6 °C 1019.2 hPa SSW 11.6 km/h 18.5 km/h 62 % 0 mm
13:25 15.7 °C 8.4 °C 1019.5 hPa SW 6.6 km/h 11.1 km/h 62 % 0 mm
13:30 16.2 °C 8.6 °C 1019.2 hPa WSW 12.9 km/h 16.7 km/h 61 % 0 mm
13:35 16.7 °C 8.2 °C 1019.5 hPa WSW 17.5 km/h 27.8 km/h 57 % 0 mm
13:40 16.7 °C 8.2 °C 1019.2 hPa SW 14.2 km/h 18.5 km/h 57 % 0 mm
13:45 16.8 °C 7.9 °C 1019.2 hPa SW 11.6 km/h 18.5 km/h 56 % 0 mm
13:50 16.7 °C 6.8 °C 1019.2 hPa SW 15 km/h 24.1 km/h 52 % 0 mm
13:55 17.1 °C 8.3 °C 1019.2 hPa SSW 13.2 km/h 18.5 km/h 56 % 0 mm
14:00 17.1 °C 8 °C 1019.2 hPa SSE 18.7 km/h 29.6 km/h 55 % 0 mm
14:05 16.5 °C 7.9 °C 1019.2 hPa SW 16.6 km/h 27.8 km/h 57 % 0 mm
14:10 16.2 °C 7.9 °C 1019.2 hPa South 15.3 km/h 18.5 km/h 58 % 0 mm
14:15 16.3 °C 8.1 °C 1019.5 hPa SSW 19.2 km/h 24.1 km/h 58 % 0 mm
14:20 16.5 °C 7.9 °C 1019.2 hPa SW 15.6 km/h 20.4 km/h 57 % 0 mm
14:25 16.2 °C 7.7 °C 1019.5 hPa SSW 15.9 km/h 18.5 km/h 57 % 0 mm
14:30 16.5 °C 7.9 °C 1019.5 hPa SW 15.1 km/h 20.4 km/h 57 % 0 mm
14:35 16.8 °C 7.9 °C 1019.5 hPa South 11.7 km/h 25.9 km/h 56 % 0 mm
14:36 16.9 °C 8.1 °C 1019.5 hPa SSW 15.4 km/h 22.2 km/h 56 % 0 mm
14:41 16.8 °C 7.7 °C 1019.9 hPa SSW 13.2 km/h 20.4 km/h 55 % 0 mm
14:46 16.4 °C 7.4 °C 1019.9 hPa SSW 15.8 km/h 24.1 km/h 55 % 0 mm
14:51 16.4 °C 7.1 °C 1019.9 hPa SW 21.4 km/h 29.6 km/h 54 % 0 mm
14:56 16.5 °C 7.2 °C 1019.9 hPa SSW 10.1 km/h 20.4 km/h 54 % 0 mm
15:01 16.5 °C 6.6 °C 1019.9 hPa SW 15 km/h 18.5 km/h 52 % 0 mm
15:06 16.2 °C 6.3 °C 1019.9 hPa WSW 10 km/h 16.7 km/h 52 % 0 mm
15:11 16.2 °C 6.6 °C 1019.9 hPa SW 15.1 km/h 32.2 km/h 53 % 0 mm
15:16 16.3 °C 7.8 °C 1020.2 hPa SSW 20.9 km/h 31.5 km/h 57 % 0 mm
15:21 16 °C 7.7 °C 1019.9 hPa SSE 12.7 km/h 22.5 km/h 58 % 0 mm
15:26 15.9 °C 7.9 °C 1019.9 hPa SSW 15.3 km/h 18.5 km/h 59 % 0 mm
15:31 15.8 °C 7.8 °C 1019.9 hPa SSW 16.9 km/h 24.1 km/h 59 % 0 mm
15:36 15.7 °C 7.9 °C 1019.9 hPa SW 13.5 km/h 18.5 km/h 60 % 0 mm
15:41 15.8 °C 8.3 °C 1020.2 hPa SSW 16.4 km/h 20.9 km/h 61 % 0 mm
15:46 15.8 °C 8 °C 1020.2 hPa SSW 12.7 km/h 18.5 km/h 60 % 0 mm
15:51 16 °C 8.2 °C 1020.2 hPa SW 13.2 km/h 16.7 km/h 60 % 0 mm
15:56 15.8 °C 8 °C 1020.2 hPa SSW 15.3 km/h 29.6 km/h 60 % 0 mm
16:01 15.6 °C 8.3 °C 1020.2 hPa SSW 8.9 km/h 18.5 km/h 62 % 0 mm
16:06 15.4 °C 8.4 °C 1020.2 hPa SSW 12.2 km/h 18.5 km/h 63 % 0 mm
16:11 15.3 °C 8.5 °C 1020.2 hPa SSW 17.1 km/h 24.1 km/h 64 % 0 mm
16:16 15.2 °C 8.7 °C 1020.5 hPa SSW 14.3 km/h 20.9 km/h 65 % 0 mm
16:21 15.1 °C 8.8 °C 1020.5 hPa SSW 11.7 km/h 18.5 km/h 66 % 0 mm
16:26 14.9 °C 8.8 °C 1020.5 hPa SSW 17.5 km/h 22.2 km/h 67 % 0 mm
16:31 14.7 °C 8.8 °C 1020.5 hPa SSW 14 km/h 18.5 km/h 68 % 0 mm
16:36 14.6 °C 8.7 °C 1020.5 hPa SSW 6.8 km/h 11.1 km/h 68 % 0 mm
16:41 14.5 °C 8.7 °C 1020.5 hPa South 14.6 km/h 20.4 km/h 68 % 0 mm
16:46 14.3 °C 8.5 °C 1020.5 hPa SSW 11.3 km/h 17.7 km/h 68 % 0 mm
16:51 14.3 °C 8.7 °C 1020.9 hPa SSW 9 km/h 14.5 km/h 69 % 0 mm
16:56 14.2 °C 8.6 °C 1020.9 hPa SSW 9.8 km/h 13 km/h 69 % 0 mm
17:01 14.2 °C 8.6 °C 1020.9 hPa SSW 10 km/h 14.8 km/h 69 % 0 mm
17:06 14.1 °C 8.5 °C 1020.9 hPa SSW 12.1 km/h 16.7 km/h 69 % 0 mm
17:11 14.1 °C 8.7 °C 1020.9 hPa SSW 4.2 km/h 9.3 km/h 70 % 0 mm
17:16 14 °C 8.6 °C 1020.9 hPa SSW 8.7 km/h 14.8 km/h 70 % 0 mm
17:21 13.9 °C 8.8 °C 1020.9 hPa South 7.2 km/h 11.1 km/h 71 % 0 mm
17:26 13.9 °C 8.7 °C 1020.9 hPa South 7.6 km/h 11.1 km/h 71 % 0 mm
17:31 13.8 °C 8.6 °C 1020.9 hPa South 6.1 km/h 9.3 km/h 71 % 0 mm
17:36 13.7 °C 8.6 °C 1020.9 hPa South 3.7 km/h 7.4 km/h 71 % 0 mm
17:41 13.6 °C 8.7 °C 1021.2 hPa South 5.3 km/h 11.3 km/h 72 % 0 mm
17:46 13.6 °C 8.7 °C 1021.2 hPa South 7.1 km/h 11.1 km/h 72 % 0 mm
17:51 13.6 °C 8.6 °C 1021.2 hPa South 7.7 km/h 14.5 km/h 72 % 0 mm
17:56 13.5 °C 8.6 °C 1021.6 hPa South 6 km/h 9.3 km/h 72 % 0 mm
18:01 13.4 °C 8.5 °C 1021.6 hPa South 5 km/h 7.4 km/h 72 % 0 mm
18:06 13.3 °C 8.2 °C 1021.6 hPa South 6.3 km/h 9.3 km/h 71 % 0 mm
18:11 13.3 °C 8.1 °C 1021.6 hPa South 8.2 km/h 14.8 km/h 71 % 0 mm
18:16 13.3 °C 8.1 °C 1021.6 hPa South 4.8 km/h 8 km/h 71 % 0 mm
18:21 13.3 °C 8.1 °C 1021.6 hPa South 5.5 km/h 11.1 km/h 71 % 0 mm
18:26 13.3 °C 8.1 °C 1021.6 hPa South 4 km/h 5.6 km/h 71 % 0 mm
18:31 13.3 °C 8.1 °C 1021.9 hPa South 4 km/h 6.4 km/h 71 % 0 mm
18:36 13.3 °C 8.2 °C 1021.9 hPa South 3.7 km/h 7.4 km/h 71 % 0 mm
18:41 13.3 °C 8.1 °C 1021.9 hPa South 3.5 km/h 5.6 km/h 71 % 0 mm
18:46 13.2 °C 8.3 °C 1021.9 hPa South 3.9 km/h 5.6 km/h 72 % 0 mm
18:51 13.1 °C 8.2 °C 1021.9 hPa South 4 km/h 5.6 km/h 72 % 0 mm
18:56 13.1 °C 8.1 °C 1022.2 hPa South 1.3 km/h 9.3 km/h 72 % 0 mm
19:01 12.9 °C 8.2 °C 1022.2 hPa South 0.6 km/h 1.9 km/h 73 % 0 mm
19:06 12.8 °C 8.1 °C 1022.2 hPa South 3.5 km/h 5.6 km/h 73 % 0 mm
19:11 12.7 °C 7.9 °C 1022.2 hPa South 3.1 km/h 5.6 km/h 73 % 0 mm
19:16 12.4 °C 7.9 °C 1022.2 hPa South 3.9 km/h 5.6 km/h 74 % 0 mm
19:21 12.3 °C 7.8 °C 1022.2 hPa South 3.7 km/h 5.6 km/h 74 % 0 mm
19:26 12.2 °C 7.7 °C 1022.2 hPa South 3.5 km/h 4.8 km/h 74 % 0 mm
19:31 12 °C 7.5 °C 1022.6 hPa South 4.2 km/h 5.6 km/h 74 % 0 mm
19:36 11.9 °C 7.4 °C 1022.6 hPa South 3.4 km/h 5.6 km/h 74 % 0 mm
19:41 11.8 °C 7.5 °C 1022.6 hPa South 2.6 km/h 5.6 km/h 75 % 0 mm
19:46 11.7 °C 7.4 °C 1022.6 hPa South 1.3 km/h 3.7 km/h 75 % 0 mm
19:51 11.5 °C 7.2 °C 1022.6 hPa South 2.6 km/h 5.6 km/h 75 % 0 mm
19:56 11.4 °C 7.1 °C 1022.6 hPa South 3.1 km/h 4.8 km/h 75 % 0 mm
20:01 11.3 °C 7.2 °C 1022.9 hPa South 1.8 km/h 5.6 km/h 76 % 0 mm
20:06 11.2 °C 7.2 °C 1022.9 hPa South 3.4 km/h 5.6 km/h 76 % 0 mm
20:11 11.2 °C 7.3 °C 1022.9 hPa South 4.3 km/h 6.4 km/h 77 % 0 mm
20:16 11.2 °C 7.3 °C 1022.9 hPa South 3.5 km/h 5.6 km/h 77 % 0 mm
20:21 11.2 °C 7.3 °C 1023.2 hPa South 3.5 km/h 6.4 km/h 77 % 0 mm
20:26 11.1 °C 7.2 °C 1023.2 hPa South 4 km/h 6.4 km/h 77 % 0 mm
20:31 11.1 °C 7.2 °C 1023.2 hPa South 6.6 km/h 9.7 km/h 77 % 0 mm
20:36 11.2 °C 7.3 °C 1023.2 hPa South 3.2 km/h 5.6 km/h 77 % 0 mm
20:41 11.2 °C 7.1 °C 1023.2 hPa South 4.2 km/h 5.6 km/h 76 % 0 mm
20:46 11.2 °C 7.2 °C 1023.2 hPa South 5.8 km/h 9.3 km/h 76 % 0 mm
20:47 11.2 °C 7.2 °C 1023.2 hPa South 5.8 km/h 7.4 km/h 76 % 0 mm
20:52 11.2 °C 7.1 °C 1023.2 hPa South 6.3 km/h 9.3 km/h 76 % 0 mm
20:57 11.2 °C 7.3 °C 1023.2 hPa South 5.3 km/h 8 km/h 77 % 0 mm
21:02 11.1 °C 7.2 °C 1023.2 hPa South 4.3 km/h 8 km/h 77 % 0 mm
21:07 10.9 °C 7.1 °C 1023.2 hPa South 4.2 km/h 5.6 km/h 77 % 0 mm
21:12 10.8 °C 7.1 °C 1023.6 hPa South 3.7 km/h 6.4 km/h 78 % 0 mm
21:17 10.6 °C 7.1 °C 1023.6 hPa South 4 km/h 5.6 km/h 79 % 0 mm
21:22 10.4 °C 6.9 °C 1023.6 hPa South 2.3 km/h 5.6 km/h 79 % 0 mm
21:27 10.3 °C 7.1 °C 1023.6 hPa South 4.5 km/h 5.6 km/h 80 % 0 mm
21:32 10.2 °C 6.9 °C 1023.6 hPa South 3.1 km/h 5.6 km/h 80 % 0 mm
21:37 10.1 °C 6.9 °C 1023.6 hPa South 3.9 km/h 5.6 km/h 81 % 0 mm
21:42 9.9 °C 6.8 °C 1023.6 hPa South 3.2 km/h 5.6 km/h 81 % 0 mm
21:47 9.8 °C 6.7 °C 1023.6 hPa South 2.4 km/h 5.6 km/h 81 % 0 mm
21:52 9.7 °C 6.8 °C 1023.6 hPa South 3.1 km/h 5.6 km/h 82 % 0 mm
21:57 9.6 °C 6.6 °C 1023.9 hPa South 3.2 km/h 5.6 km/h 82 % 0 mm
22:02 9.4 °C 6.5 °C 1023.6 hPa South 2.4 km/h 5.6 km/h 82 % 0 mm
22:07 9.3 °C 6.6 °C 1023.6 hPa South 2.4 km/h 3.7 km/h 83 % 0 mm
22:12 9.2 °C 6.5 °C 1023.6 hPa South 2.6 km/h 3.7 km/h 83 % 0 mm
22:17 9.1 °C 6.4 °C 1023.6 hPa South 4.2 km/h 5.6 km/h 83 % 0 mm
22:22 9 °C 6.4 °C 1023.6 hPa South 3.1 km/h 5.6 km/h 84 % 0 mm
22:27 8.9 °C 7.2 °C 1023.6 hPa South 4 km/h 5.6 km/h 89 % 0 mm
22:32 8.9 °C 6.6 °C 1023.9 hPa South 3.9 km/h 8 km/h 85 % 0 mm
22:37 8.9 °C 6.5 °C 1023.9 hPa South 4.8 km/h 5.6 km/h 85 % 0 mm
22:42 8.8 °C 6.4 °C 1023.9 hPa South 3.7 km/h 5.6 km/h 85 % 0 mm
22:47 8.8 °C 6.4 °C 1023.9 hPa South 2.1 km/h 3.7 km/h 85 % 0 mm
22:52 8.7 °C 6.5 °C 1023.9 hPa South 3.4 km/h 5.6 km/h 86 % 0 mm
22:57 8.7 °C 6.4 °C 1023.9 hPa South 3.9 km/h 5.6 km/h 86 % 0 mm
23:02 8.6 °C 6.4 °C 1023.9 hPa South 0.2 km/h   86 % 0 mm
23:07 8.5 °C 6.3 °C 1023.9 hPa South 1.9 km/h 3.7 km/h 86 % 0 mm
23:12 8.4 °C 6.2 °C 1023.9 hPa South 3.5 km/h 5.6 km/h 86 % 0 mm
23:17 8.3 °C 6.1 °C 1023.9 hPa South 4.5 km/h 5.6 km/h 86 % 0 mm
23:22 8.3 °C 6.3 °C 1023.9 hPa South 4 km/h 5.6 km/h 87 % 0 mm
23:27 8.3 °C 6.2 °C 1023.9 hPa South 2.7 km/h 3.7 km/h 87 % 0 mm
23:32 8.3 °C 6.2 °C 1023.9 hPa South 2.9 km/h 3.7 km/h 87 % 0 mm
23:37 8.3 °C 6.2 °C 1023.9 hPa South 2.4 km/h 3.7 km/h 87 % 0 mm
23:42 8.2 °C 6.2 °C 1023.9 hPa South 3.9 km/h 5.6 km/h 87 % 0 mm
23:47 8.2 °C 6.2 °C 1023.9 hPa South 4.8 km/h 6.4 km/h 87 % 0 mm
23:52 8.2 °C 6.3 °C 1023.9 hPa South 5 km/h 6.4 km/h 88 % 0 mm
23:57 8.2 °C 6.3 °C 1023.9 hPa South 5.6 km/h 7.4 km/h 88 % 0 mm
Ararat Weather
Compliments of Weather Underground - 2.25 mb
Click here to send mail.


ABOUT

Live weather data from Ararat, Victoria, Australia, 3377
Data uploaded from Cumulus every 5 minutes to Weather Underground.
This site then downloads the raw data for formatting and display.
Metric and imperial data can be displayed. Graphs and historical data available.
Includes Sun and Moon times and rain image live from BOM.

Check out Ararat Weather on Facebook, Twitter and Google +

Help support ongoing costs by checking out the ads





Follow @AraratWeather